sensor_id;sensor_type;location;lat;lon;timestamp;pressure;altitude;pressure_sealevel;temperature;humidity
35758;BME280;21879;50.110;18.900;2023-03-23T00:00:13;98191.98;;;10.58;59.43
35758;BME280;21879;50.110;18.900;2023-03-23T00:10:52;98191.67;;;10.56;59.76
35758;BME280;21879;50.110;18.900;2023-03-23T00:21:20;98189.13;;;10.43;59.64
35758;BME280;21879;50.110;18.900;2023-03-23T00:31:49;98196.56;;;10.22;59.46
35758;BME280;21879;50.110;18.900;2023-03-23T00:42:15;98198.89;;;10.18;59.75
35758;BME280;21879;50.110;18.900;2023-03-23T00:52:40;98194.88;;;10.08;59.56
35758;BME280;21879;50.110;18.900;2023-03-23T01:03:05;98192.42;;;10.20;60.05
35758;BME280;21879;50.110;18.900;2023-03-23T01:13:30;98176.04;;;10.46;60.01
35758;BME280;21879;50.110;18.900;2023-03-23T01:23:54;98176.32;;;10.39;59.76
35758;BME280;21879;50.110;18.900;2023-03-23T01:34:19;98180.58;;;10.12;59.82
35758;BME280;21879;50.110;18.900;2023-03-23T01:55:42;98176.16;;;10.05;59.83
35758;BME280;21879;50.110;18.900;2023-03-23T02:06:08;98169.41;;;10.03;59.65
35758;BME280;21879;50.110;18.900;2023-03-23T02:16:38;98154.78;;;9.84;59.42
35758;BME280;21879;50.110;18.900;2023-03-23T02:27:08;98153.89;;;9.74;59.84
35758;BME280;21879;50.110;18.900;2023-03-23T02:37:38;98149.81;;;9.69;60.10
35758;BME280;21879;50.110;18.900;2023-03-23T02:48:05;98140.24;;;9.70;60.04
35758;BME280;21879;50.110;18.900;2023-03-23T02:58:31;98135.83;;;9.63;60.37
35758;BME280;21879;50.110;18.900;2023-03-23T03:09:02;98135.87;;;9.60;60.49
35758;BME280;21879;50.110;18.900;2023-03-23T03:19:31;98131.64;;;9.53;60.76
35758;BME280;21879;50.110;18.900;2023-03-23T03:29:58;98130.43;;;9.63;60.76
35758;BME280;21879;50.110;18.900;2023-03-23T03:40:26;98124.10;;;9.57;60.35
35758;BME280;21879;50.110;18.900;2023-03-23T03:50:51;98119.83;;;9.53;60.33
35758;BME280;21879;50.110;18.900;2023-03-23T04:01:21;98128.13;;;9.43;60.27
35758;BME280;21879;50.110;18.900;2023-03-23T04:11:47;98136.92;;;9.34;60.75
35758;BME280;21879;50.110;18.900;2023-03-23T04:22:11;98122.77;;;9.30;61.20
35758;BME280;21879;50.110;18.900;2023-03-23T04:32:36;98116.27;;;9.35;61.35
35758;BME280;21879;50.110;18.900;2023-03-23T04:43:05;98104.11;;;9.23;61.43
35758;BME280;21879;50.110;18.900;2023-03-23T04:53:30;98109.46;;;9.38;61.47
35758;BME280;21879;50.110;18.900;2023-03-23T05:03:55;98115.23;;;9.22;61.67
35758;BME280;21879;50.110;18.900;2023-03-23T05:14:20;98118.55;;;9.34;61.77
35758;BME280;21879;50.110;18.900;2023-03-23T05:24:44;98116.27;;;9.35;61.78
35758;BME280;21879;50.110;18.900;2023-03-23T05:35:09;98118.54;;;9.47;61.98
35758;BME280;21879;50.110;18.900;2023-03-23T05:45:34;98118.55;;;9.56;61.81
35758;BME280;21879;50.110;18.900;2023-03-23T05:56:01;98119.14;;;9.87;62.00
35758;BME280;21879;50.110;18.900;2023-03-23T06:06:27;98129.78;;;9.95;62.49
35758;BME280;21879;50.110;18.900;2023-03-23T06:16:52;98123.45;;;10.30;63.39
35758;BME280;21879;50.110;18.900;2023-03-23T06:27:17;98112.05;;;10.84;63.65
35758;BME280;21879;50.110;18.900;2023-03-23T06:37:42;98107.77;;;11.29;63.54
35758;BME280;21879;50.110;18.900;2023-03-23T06:48:07;98109.32;;;11.54;62.92
35758;BME280;21879;50.110;18.900;2023-03-23T06:58:32;98117.13;;;11.48;62.70
35758;BME280;21879;50.110;18.900;2023-03-23T07:08:56;98118.52;;;11.79;62.80
35758;BME280;21879;50.110;18.900;2023-03-23T07:19:21;98117.64;;;11.94;62.23
35758;BME280;21879;50.110;18.900;2023-03-23T07:29:46;98121.50;;;12.14;62.19
35758;BME280;21879;50.110;18.900;2023-03-23T07:40:12;98129.10;;;12.17;61.74
35758;BME280;21879;50.110;18.900;2023-03-23T07:50:38;98134.11;;;12.19;61.64
35758;BME280;21879;50.110;18.900;2023-03-23T08:01:04;98132.02;;;12.46;61.83
35758;BME280;21879;50.110;18.900;2023-03-23T08:11:29;98134.42;;;12.86;61.35
35758;BME280;21879;50.110;18.900;2023-03-23T08:21:54;98133.88;;;13.18;60.69
35758;BME280;21879;50.110;18.900;2023-03-23T08:32:20;98127.45;;;13.59;59.52
35758;BME280;21879;50.110;18.900;2023-03-23T08:42:53;98116.58;;;14.09;57.95
35758;BME280;21879;50.110;18.900;2023-03-23T08:53:18;98113.00;;;14.43;56.64
35758;BME280;21879;50.110;18.900;2023-03-23T09:03:44;98097.61;;;14.48;55.61
35758;BME280;21879;50.110;18.900;2023-03-23T09:14:08;98097.71;;;14.55;55.42
35758;BME280;21879;50.110;18.900;2023-03-23T09:24:33;98098.52;;;15.15;54.86
35758;BME280;21879;50.110;18.900;2023-03-23T09:34:58;98102.05;;;15.46;53.33
35758;BME280;21879;50.110;18.900;2023-03-23T09:45:28;98097.21;;;15.54;52.36
35758;BME280;21879;50.110;18.900;2023-03-23T09:55:55;98101.99;;;15.89;52.05
35758;BME280;21879;50.110;18.900;2023-03-23T10:06:20;98087.36;;;16.49;51.32
35758;BME280;21879;50.110;18.900;2023-03-23T10:16:54;98076.48;;;17.02;49.82
35758;BME280;21879;50.110;18.900;2023-03-23T10:27:28;98082.50;;;17.31;48.51
35758;BME280;21879;50.110;18.900;2023-03-23T10:37:58;98063.58;;;17.49;46.33
35758;BME280;21879;50.110;18.900;2023-03-23T10:48:27;98066.39;;;17.34;44.76
35758;BME280;21879;50.110;18.900;2023-03-23T10:58:54;98067.29;;;16.99;44.08
35758;BME280;21879;50.110;18.900;2023-03-23T11:09:21;98072.70;;;16.72;44.37
35758;BME280;21879;50.110;18.900;2023-03-23T11:19:56;98073.30;;;16.58;45.06
35758;BME280;21879;50.110;18.900;2023-03-23T11:30:25;98072.30;;;16.57;45.45
35758;BME280;21879;50.110;18.900;2023-03-23T11:40:51;98068.20;;;16.62;45.59
35758;BME280;21879;50.110;18.900;2023-03-23T11:51:19;98062.19;;;16.67;45.29
35758;BME280;21879;50.110;18.900;2023-03-23T12:01:56;98061.84;;;16.63;45.21
35758;BME280;21879;50.110;18.900;2023-03-23T12:12:29;98055.44;;;16.57;45.27
35758;BME280;21879;50.110;18.900;2023-03-23T12:23:06;98046.61;;;16.54;45.66
35758;BME280;21879;50.110;18.900;2023-03-23T12:33:42;98038.63;;;16.56;45.83
35758;BME280;21879;50.110;18.900;2023-03-23T12:44:11;98043.47;;;16.62;45.75
35758;BME280;21879;50.110;18.900;2023-03-23T12:54:36;98044.35;;;16.66;45.65
35758;BME280;21879;50.110;18.900;2023-03-23T13:05:06;98043.01;;;16.68;45.61
35758;BME280;21879;50.110;18.900;2023-03-23T13:15:40;98048.93;;;16.74;45.59
35758;BME280;21879;50.110;18.900;2023-03-23T13:26:09;98037.38;;;16.81;45.67
35758;BME280;21879;50.110;18.900;2023-03-23T13:36:38;98016.55;;;16.95;45.37
35758;BME280;21879;50.110;18.900;2023-03-23T13:47:07;97997.92;;;17.10;45.17
35758;BME280;21879;50.110;18.900;2023-03-23T13:57:48;97982.66;;;17.25;44.69
35758;BME280;21879;50.110;18.900;2023-03-23T14:08:37;97976.07;;;17.30;44.78
35758;BME280;21879;50.110;18.900;2023-03-23T14:19:03;97981.27;;;17.35;44.66
35758;BME280;21879;50.110;18.900;2023-03-23T14:29:29;97991.61;;;17.36;44.28
35758;BME280;21879;50.110;18.900;2023-03-23T14:39:55;97985.37;;;17.38;44.06
35758;BME280;21879;50.110;18.900;2023-03-23T14:50:28;97973.35;;;17.43;43.94
35758;BME280;21879;50.110;18.900;2023-03-23T15:00:57;97980.63;;;17.45;43.66
35758;BME280;21879;50.110;18.900;2023-03-23T15:11:28;97979.52;;;17.43;43.82
35758;BME280;21879;50.110;18.900;2023-03-23T15:21:55;97981.06;;;17.36;43.41
35758;BME280;21879;50.110;18.900;2023-03-23T15:32:24;97979.61;;;17.29;43.22
35758;BME280;21879;50.110;18.900;2023-03-23T15:42:50;97987.20;;;17.22;42.92
35758;BME280;21879;50.110;18.900;2023-03-23T15:53:31;97986.25;;;17.12;43.45
35758;BME280;21879;50.110;18.900;2023-03-23T16:03:58;97982.84;;;17.06;43.26
35758;BME280;21879;50.110;18.900;2023-03-23T16:14:25;97991.75;;;17.00;43.14
35758;BME280;21879;50.110;18.900;2023-03-23T16:24:51;98002.44;;;16.97;43.22
35758;BME280;21879;50.110;18.900;2023-03-23T16:35:19;98001.80;;;16.99;43.24
35758;BME280;21879;50.110;18.900;2023-03-23T16:45:45;98001.64;;;16.98;43.37
35758;BME280;21879;50.110;18.900;2023-03-23T16:56:12;98004.23;;;17.18;43.64
35758;BME280;21879;50.110;18.900;2023-03-23T17:06:38;97999.04;;;17.39;43.32
35758;BME280;21879;50.110;18.900;2023-03-23T17:17:04;98003.44;;;17.35;43.24
35758;BME280;21879;50.110;18.900;2023-03-23T17:27:32;98020.69;;;16.85;43.64
35758;BME280;21879;50.110;18.900;2023-03-23T17:37:58;98030.59;;;16.79;44.37
35758;BME280;21879;50.110;18.900;2023-03-23T17:48:25;98052.68;;;16.76;45.08
35758;BME280;21879;50.110;18.900;2023-03-23T17:58:50;98027.59;;;16.68;45.30
35758;BME280;21879;50.110;18.900;2023-03-23T18:09:16;98031.31;;;16.47;46.04
35758;BME280;21879;50.110;18.900;2023-03-23T18:19:44;98044.06;;;16.40;46.46
35758;BME280;21879;50.110;18.900;2023-03-23T18:30:11;98062.70;;;16.31;47.28
35758;BME280;21879;50.110;18.900;2023-03-23T18:40:42;98074.71;;;16.17;47.24
35758;BME280;21879;50.110;18.900;2023-03-23T18:51:09;98083.97;;;16.01;47.66
35758;BME280;21879;50.110;18.900;2023-03-23T19:01:34;98082.84;;;15.90;48.06
35758;BME280;21879;50.110;18.900;2023-03-23T19:12:00;98076.83;;;15.87;48.22
35758;BME280;21879;50.110;18.900;2023-03-23T19:22:26;98086.23;;;15.67;48.42
35758;BME280;21879;50.110;18.900;2023-03-23T19:32:52;98082.31;;;15.68;48.87
35758;BME280;21879;50.110;18.900;2023-03-23T19:43:18;98068.07;;;15.51;48.73
35758;BME280;21879;50.110;18.900;2023-03-23T19:53:44;98077.84;;;15.25;48.94
35758;BME280;21879;50.110;18.900;2023-03-23T20:04:11;98082.49;;;15.13;49.38
35758;BME280;21879;50.110;18.900;2023-03-23T20:14:38;98089.64;;;15.14;49.35
35758;BME280;21879;50.110;18.900;2023-03-23T20:25:08;98105.71;;;15.20;49.23
35758;BME280;21879;50.110;18.900;2023-03-23T20:35:35;98115.88;;;15.29;49.12
35758;BME280;21879;50.110;18.900;2023-03-23T20:46:02;98123.42;;;15.37;48.98
35758;BME280;21879;50.110;18.900;2023-03-23T20:56:29;98135.71;;;15.51;48.97
35758;BME280;21879;50.110;18.900;2023-03-23T21:06:55;98132.26;;;15.63;48.80
35758;BME280;21879;50.110;18.900;2023-03-23T21:17:21;98120.74;;;15.52;48.65
35758;BME280;21879;50.110;18.900;2023-03-23T21:27:47;98116.45;;;15.41;48.81
35758;BME280;21879;50.110;18.900;2023-03-23T21:38:15;98131.38;;;15.45;49.01
35758;BME280;21879;50.110;18.900;2023-03-23T21:48:43;98136.48;;;15.63;49.09
35758;BME280;21879;50.110;18.900;2023-03-23T21:59:09;98129.19;;;15.61;49.02
35758;BME280;21879;50.110;18.900;2023-03-23T22:09:34;98126.55;;;15.52;49.12
35758;BME280;21879;50.110;18.900;2023-03-23T22:20:02;98134.50;;;15.45;49.26
35758;BME280;21879;50.110;18.900;2023-03-23T22:30:29;98132.84;;;15.43;49.39
35758;BME280;21879;50.110;18.900;2023-03-23T22:40:57;98130.38;;;15.44;49.55
35758;BME280;21879;50.110;18.900;2023-03-23T22:51:24;98125.83;;;15.44;49.61
35758;BME280;21879;50.110;18.900;2023-03-23T23:01:50;98126.02;;;15.43;49.72
35758;BME280;21879;50.110;18.900;2023-03-23T23:12:16;98128.70;;;15.42;50.01
35758;BME280;21879;50.110;18.900;2023-03-23T23:22:43;98131.20;;;15.31;50.37
35758;BME280;21879;50.110;18.900;2023-03-23T23:33:09;98132.05;;;15.23;50.70
35758;BME280;21879;50.110;18.900;2023-03-23T23:43:35;98126.24;;;15.18;50.99
35758;BME280;21879;50.110;18.900;2023-03-23T23:54:01;98129.77;;;15.23;51.04
